createdAt,value
2022-09-23T00:00:46.188Z,28.31
2022-09-23T00:03:28.880Z,28.41
2022-09-23T00:06:16.318Z,28.42
2022-09-23T00:09:06.178Z,28.36
2022-09-23T00:11:55.190Z,28.37
2022-09-23T00:14:37.885Z,28.41
2022-09-23T00:17:26.176Z,28.49
2022-09-23T00:20:08.814Z,28.49
2022-09-23T00:22:57.951Z,28.45
2022-09-23T00:25:40.313Z,28.53
2022-09-23T00:28:28.883Z,28.57
2022-09-23T00:31:29.822Z,28.54
2022-09-23T00:34:19.931Z,28.40
2022-09-23T00:37:08.825Z,28.53
2022-09-23T00:39:57.796Z,28.59
2022-09-23T00:42:46.904Z,28.53
2022-09-23T00:45:30.050Z,28.46
2022-09-23T00:48:19.807Z,28.55
2022-09-23T00:51:09.813Z,28.52
2022-09-23T00:53:56.260Z,28.48
2022-09-23T00:56:46.822Z,28.55
2022-09-23T00:59:31.193Z,28.52
2022-09-23T01:02:21.959Z,28.53
2022-09-23T01:05:04.183Z,28.47
2022-09-23T01:07:53.896Z,28.47
2022-09-23T01:10:44.362Z,28.36
2022-09-23T01:14:06.890Z,28.44
2022-09-23T01:17:00.206Z,28.53
2022-09-23T01:20:10.889Z,28.59
2022-09-23T01:23:16.189Z,28.53
2022-09-23T01:26:16.873Z,28.57
2022-09-23T01:29:26.788Z,28.48
2022-09-23T01:32:42.929Z,28.61
2022-09-23T01:35:44.989Z,28.66
2022-09-23T01:38:41.888Z,28.62
2022-09-23T01:41:36.193Z,28.59
2022-09-23T01:44:21.908Z,28.77
2022-09-23T01:47:32.884Z,28.76
2022-09-23T01:50:52.241Z,28.76
2022-09-23T01:53:58.171Z,28.71
2022-09-23T01:57:12.876Z,28.60
2022-09-23T02:00:11.886Z,28.77
2022-09-23T02:03:00.431Z,28.86
2022-09-23T02:05:56.876Z,28.97
2022-09-23T02:08:49.191Z,29.12
2022-09-23T02:11:43.882Z,29.11
2022-09-23T02:14:39.156Z,28.94
2022-09-23T02:17:54.890Z,29.04
2022-09-23T02:20:47.899Z,28.88
2022-09-23T02:23:45.462Z,28.88
2022-09-23T02:27:02.898Z,28.87
2022-09-23T02:30:03.877Z,29.12
2022-09-23T02:33:16.509Z,28.77
2022-09-23T02:36:14.886Z,28.96
2022-09-23T02:39:11.978Z,28.62
2022-09-23T02:42:07.173Z,28.97
2022-09-23T02:44:55.895Z,29.27
2022-09-23T02:47:42.322Z,29.05
2022-09-23T02:50:30.912Z,28.94
2022-09-23T02:53:14.307Z,29.24
2022-09-23T02:56:02.922Z,29.28
2022-09-23T02:58:51.773Z,29.31
2022-09-23T03:01:59.919Z,29.35
2022-09-23T03:04:43.593Z,29.52
2022-09-23T03:07:32.901Z,29.39
2022-09-23T03:10:24.162Z,29.47
2022-09-23T03:13:37.904Z,29.53
2022-09-23T03:16:53.239Z,29.70
2022-09-23T03:20:01.896Z,29.72
2022-09-23T03:22:58.146Z,29.92
2022-09-23T03:25:50.904Z,30.08
2022-09-23T03:28:35.174Z,30.20
2022-09-23T03:31:24.912Z,30.50
2022-09-23T03:34:10.261Z,30.35
2022-09-23T03:37:15.863Z,30.36
2022-09-23T03:40:32.979Z,30.45
2022-09-23T03:43:15.530Z,30.77
2022-09-23T03:46:08.951Z,30.56
2022-09-23T03:48:51.097Z,30.61
2022-09-23T03:51:44.393Z,30.45
2022-09-23T03:54:37.791Z,30.43
2022-09-23T03:57:23.055Z,30.51
2022-09-23T04:00:15.982Z,30.89
2022-09-23T04:03:09.538Z,30.61
2022-09-23T04:05:59.169Z,30.54
2022-09-23T04:08:40.773Z,30.83
2022-09-23T04:11:29.187Z,30.95
2022-09-23T04:14:11.873Z,31.03
2022-09-23T04:17:00.154Z,30.74
2022-09-23T04:19:42.894Z,30.66
2022-09-23T04:22:25.133Z,30.99
2022-09-23T04:25:13.881Z,30.73
2022-09-23T04:27:56.068Z,30.95
2022-09-23T04:30:44.889Z,30.95
2022-09-23T04:33:27.355Z,31.12
2022-09-23T04:36:15.863Z,31.41
2022-09-23T04:38:58.514Z,31.78
2022-09-23T04:41:46.874Z,32.17
2022-09-23T04:44:29.400Z,31.74
2022-09-23T04:47:17.793Z,32.76
2022-09-23T04:50:06.857Z,32.66
2022-09-23T04:52:56.200Z,32.88
2022-09-23T04:55:38.097Z,33.08
2022-09-23T04:58:26.901Z,33.15
2022-09-23T05:01:18.367Z,33.27
2022-09-23T05:04:09.902Z,33.78
2022-09-23T05:06:52.092Z,33.76
2022-09-23T05:09:40.898Z,33.92
2022-09-23T05:12:23.044Z,33.78
2022-09-23T05:15:23.858Z,34.20
2022-09-23T05:18:06.151Z,34.28
2022-09-23T05:20:54.864Z,34.25
2022-09-23T05:23:38.010Z,33.89
2022-09-23T05:26:27.875Z,34.53
2022-09-23T05:29:16.862Z,34.46
2022-09-23T05:32:11.772Z,33.53
2022-09-23T05:34:56.239Z,33.46
2022-09-23T05:37:44.774Z,33.33
2022-09-23T05:40:27.094Z,32.63
2022-09-23T05:43:15.806Z,32.83
2022-09-23T05:46:08.122Z,32.56
2022-09-23T05:49:02.180Z,33.00
2022-09-23T05:51:50.130Z,32.69
2022-09-23T05:54:38.781Z,32.58
2022-09-23T05:57:22.114Z,32.49
2022-09-23T06:00:10.865Z,32.40
2022-09-23T06:02:53.112Z,32.36
2022-09-23T06:05:41.885Z,32.31
2022-09-23T06:08:24.940Z,32.30
2022-09-23T06:11:17.910Z,32.20
2022-09-23T06:14:02.325Z,32.28
2022-09-23T06:16:51.880Z,31.82
2022-09-23T06:19:34.156Z,32.07
2022-09-23T06:22:24.873Z,32.32
2022-09-23T06:25:14.198Z,32.23
2022-09-23T06:28:02.930Z,32.02
2022-09-23T06:30:57.782Z,32.29
2022-09-23T06:33:46.949Z,31.89
2022-09-23T06:36:41.389Z,31.66
2022-09-23T06:39:32.769Z,31.69
2022-09-23T06:42:16.968Z,31.38
2022-09-23T06:45:06.869Z,31.28
2022-09-23T06:48:03.889Z,31.00
2022-09-23T06:50:52.709Z,30.96
2022-09-23T06:53:35.940Z,31.30
2022-09-23T06:56:26.179Z,31.49
2022-09-23T06:59:07.879Z,31.48
2022-09-23T07:01:57.367Z,31.69
2022-09-23T07:04:38.797Z,31.85
2022-09-23T07:07:27.699Z,31.61
2022-09-23T07:10:12.957Z,31.66
2022-09-23T07:13:01.140Z,31.23
2022-09-23T07:15:43.983Z,31.24
2022-09-23T07:18:36.995Z,30.79
2022-09-23T07:21:22.941Z,30.82
2022-09-23T07:24:12.451Z,30.67
2022-09-23T07:26:53.948Z,30.76
2022-09-23T07:29:46.095Z,30.66
2022-09-23T07:32:47.603Z,30.61
2022-09-23T07:35:38.180Z,30.97
2022-09-23T07:38:20.967Z,30.89
2022-09-23T07:41:12.187Z,31.16
2022-09-23T07:43:54.875Z,31.06
2022-09-23T07:46:44.825Z,31.13
2022-09-23T07:49:33.779Z,30.80
2022-09-23T07:52:22.803Z,31.76
2022-09-23T07:55:05.265Z,32.11
2022-09-23T07:57:54.122Z,31.57
2022-09-23T08:00:37.249Z,31.58
2022-09-23T08:03:25.950Z,31.86
2022-09-23T08:06:13.252Z,31.64
2022-09-23T08:09:04.943Z,31.95
2022-09-23T08:11:48.202Z,31.89
2022-09-23T08:14:35.847Z,31.95
2022-09-23T08:17:20.208Z,31.90
2022-09-23T08:20:08.930Z,31.51
2022-09-23T08:22:51.542Z,31.47
2022-09-23T08:25:41.401Z,31.50
2022-09-23T08:28:26.313Z,31.20
2022-09-23T08:31:21.794Z,30.91
2022-09-23T08:34:04.682Z,31.02
2022-09-23T08:36:53.933Z,30.78
2022-09-23T08:39:36.133Z,28.93
2022-09-23T08:42:34.862Z,27.87
2022-09-23T08:45:33.462Z,26.59
2022-09-23T08:48:28.784Z,26.46
2022-09-23T08:51:30.476Z,26.63
2022-09-23T08:54:12.888Z,26.62
2022-09-23T08:57:06.217Z,25.93
2022-09-23T08:59:52.935Z,26.01
2022-09-23T09:02:43.214Z,26.37
2022-09-23T09:05:35.884Z,26.40
2022-09-23T09:08:33.164Z,26.30
2022-09-23T09:11:19.894Z,26.38
2022-09-23T09:14:28.349Z,26.28
2022-09-23T09:17:21.883Z,26.52
2022-09-23T09:20:31.856Z,25.97
2022-09-23T09:23:32.867Z,26.22
2022-09-23T09:26:32.178Z,26.46
2022-09-23T09:29:35.702Z,26.43
2022-09-23T09:32:45.728Z,26.44
2022-09-23T09:35:49.884Z,26.78
2022-09-23T09:38:32.895Z,27.06
2022-09-23T09:41:28.935Z,27.14
2022-09-23T09:44:30.065Z,27.08
2022-09-23T09:47:24.952Z,27.34
2022-09-23T09:50:24.970Z,27.42
2022-09-23T09:53:31.883Z,27.24
2022-09-23T09:56:19.956Z,27.52
2022-09-23T09:59:16.814Z,27.57
2022-09-23T10:02:42.119Z,27.51
2022-09-23T10:05:41.821Z,27.71
2022-09-23T10:08:30.116Z,27.87
2022-09-23T10:11:23.753Z,28.13
2022-09-23T10:14:14.207Z,28.37
2022-09-23T10:17:12.811Z,28.14
2022-09-23T10:20:08.801Z,28.30
2022-09-23T10:22:57.847Z,28.17
2022-09-23T10:25:43.095Z,28.38
2022-09-23T10:29:00.896Z,28.36
2022-09-23T10:31:51.827Z,28.31
2022-09-23T10:34:42.529Z,27.80
2022-09-23T10:37:38.896Z,28.06
2022-09-23T10:40:57.430Z,27.93
2022-09-23T10:44:00.937Z,27.81
2022-09-23T10:47:15.671Z,27.61
2022-09-23T10:50:03.818Z,27.55
2022-09-23T10:53:16.303Z,27.71
2022-09-23T10:56:23.826Z,27.98
2022-09-23T10:59:31.325Z,28.03
2022-09-23T11:02:21.825Z,28.09
2022-09-23T11:05:27.375Z,28.01
2022-09-23T11:08:12.845Z,27.94
2022-09-23T11:11:24.148Z,27.73
2022-09-23T11:14:36.881Z,27.79
2022-09-23T11:17:46.128Z,27.65
2022-09-23T11:20:39.945Z,27.38
2022-09-23T11:23:49.459Z,27.53
2022-09-23T11:26:49.380Z,27.61
2022-09-23T11:30:10.546Z,27.75
2022-09-23T11:33:21.849Z,27.68
2022-09-23T11:36:16.864Z,27.59
2022-09-23T11:39:09.126Z,27.53
2022-09-23T11:41:52.777Z,27.68
2022-09-23T11:44:57.859Z,27.89
2022-09-23T11:47:55.767Z,27.88
2022-09-23T11:50:54.862Z,27.84
2022-09-23T11:53:57.402Z,27.80
2022-09-23T11:56:53.866Z,27.87
2022-09-23T12:00:00.762Z,28.01
2022-09-23T12:03:27.652Z,27.88
2022-09-23T12:06:51.768Z,28.46
2022-09-23T12:10:07.984Z,28.36
2022-09-23T12:13:04.158Z,28.37
2022-09-23T12:15:55.871Z,28.23
2022-09-23T12:19:18.808Z,28.15
2022-09-23T12:22:22.839Z,28.25
2022-09-23T12:25:32.742Z,28.20
2022-09-23T12:28:39.192Z,28.18
2022-09-23T12:31:26.789Z,28.23
2022-09-23T12:35:00.734Z,28.27
2022-09-23T12:37:50.817Z,28.33
2022-09-23T12:40:45.734Z,28.22
2022-09-23T12:43:43.894Z,28.13
2022-09-23T12:46:29.280Z,28.11
2022-09-23T12:49:35.906Z,28.18
2022-09-23T12:52:40.257Z,28.19
2022-09-23T12:55:29.797Z,28.16
2022-09-23T12:58:47.305Z,27.76
2022-09-23T13:01:36.981Z,27.70
2022-09-23T13:04:55.805Z,27.97
2022-09-23T13:07:52.805Z,28.10
2022-09-23T13:10:42.248Z,28.19
2022-09-23T13:13:41.768Z,28.16
2022-09-23T13:16:45.837Z,28.15
2022-09-23T13:19:28.218Z,28.03
2022-09-23T13:22:20.791Z,28.12
2022-09-23T13:25:24.241Z,28.06
2022-09-23T13:28:09.832Z,27.99
2022-09-23T13:31:00.380Z,27.85
2022-09-23T13:34:08.842Z,28.14
2022-09-23T13:36:57.881Z,28.18
2022-09-23T13:39:40.288Z,28.20
2022-09-23T13:42:37.773Z,28.14
2022-09-23T13:45:35.943Z,28.12
2022-09-23T13:48:20.326Z,28.03
2022-09-23T13:51:09.919Z,27.98
2022-09-23T13:53:57.080Z,27.96
2022-09-23T13:56:47.831Z,27.89
2022-09-23T13:59:39.914Z,27.89
2022-09-23T14:02:34.063Z,27.93
2022-09-23T14:05:27.478Z,27.96
2022-09-23T14:08:17.801Z,27.72
2022-09-23T14:11:08.228Z,27.79
2022-09-23T14:13:52.852Z,28.02
2022-09-23T14:16:50.063Z,28.11
2022-09-23T14:19:35.318Z,28.18
2022-09-23T14:22:37.778Z,28.20
2022-09-23T14:25:31.917Z,28.25
2022-09-23T14:28:20.078Z,28.04
2022-09-23T14:31:12.011Z,28.25
2022-09-23T14:34:00.243Z,28.17
2022-09-23T14:37:03.385Z,28.14
2022-09-23T14:39:59.287Z,27.91
2022-09-23T14:42:50.254Z,27.79
2022-09-23T14:45:47.949Z,27.95
2022-09-23T14:48:32.147Z,27.88
2022-09-23T14:51:20.931Z,28.14
2022-09-23T14:54:03.178Z,27.95
2022-09-23T14:56:51.981Z,28.08
2022-09-23T14:59:43.604Z,28.05
2022-09-23T15:02:52.899Z,28.08
2022-09-23T15:05:56.836Z,28.28
2022-09-23T15:08:45.240Z,28.31
2022-09-23T15:11:29.833Z,28.22
2022-09-23T15:14:37.319Z,28.26
2022-09-23T15:17:30.925Z,28.27
2022-09-23T15:20:32.917Z,28.19
2022-09-23T15:23:56.049Z,28.15
2022-09-23T15:26:54.899Z,28.25
2022-09-23T15:29:37.247Z,28.20
2022-09-23T15:32:32.899Z,28.04
2022-09-23T15:35:27.780Z,27.99
2022-09-23T15:38:11.840Z,28.10
2022-09-23T15:41:01.996Z,28.17
2022-09-23T15:43:54.782Z,28.16
2022-09-23T15:46:37.680Z,28.15
2022-09-23T15:49:49.918Z,28.21
2022-09-23T15:52:32.120Z,28.11
2022-09-23T15:55:32.858Z,28.13
2022-09-23T15:58:15.277Z,28.08
2022-09-23T16:01:06.028Z,28.10
2022-09-23T16:03:48.157Z,28.17
2022-09-23T16:06:37.856Z,28.09
2022-09-23T16:09:26.221Z,28.04
2022-09-23T16:12:09.832Z,28.03
2022-09-23T16:14:58.224Z,27.92
2022-09-23T16:17:41.790Z,28.08
2022-09-23T16:20:31.224Z,28.16
2022-09-23T16:23:16.999Z,28.08
2022-09-23T16:26:05.232Z,28.03
2022-09-23T16:28:47.873Z,28.05
2022-09-23T16:31:37.343Z,28.08
2022-09-23T16:34:28.921Z,28.06
2022-09-23T16:37:11.776Z,28.05
2022-09-23T16:40:00.884Z,28.02
2022-09-23T16:42:43.295Z,28.06
2022-09-23T16:45:31.935Z,28.00
2022-09-23T16:48:14.762Z,27.93
2022-09-23T16:51:03.873Z,27.81
2022-09-23T16:53:52.949Z,27.95
2022-09-23T16:56:42.860Z,27.96
2022-09-23T16:59:51.865Z,27.99
2022-09-23T17:02:59.808Z,28.13
2022-09-23T17:05:45.379Z,28.04
2022-09-23T17:08:35.946Z,28.06
2022-09-23T17:11:29.131Z,28.10
2022-09-23T17:14:21.929Z,28.00
2022-09-23T17:17:06.951Z,28.01
2022-09-23T17:19:49.365Z,28.02
2022-09-23T17:22:37.933Z,28.05
2022-09-23T17:25:26.523Z,28.17
2022-09-23T17:28:09.915Z,28.06
2022-09-23T17:31:09.754Z,28.00
2022-09-23T17:34:00.873Z,27.96
2022-09-23T17:36:43.319Z,27.97
2022-09-23T17:39:32.419Z,27.95
2022-09-23T17:42:15.811Z,27.88
2022-09-23T17:45:06.519Z,27.81
2022-09-23T17:47:55.949Z,27.88
2022-09-23T17:50:45.322Z,27.88
2022-09-23T17:53:27.393Z,27.91
2022-09-23T17:56:20.950Z,27.95
2022-09-23T17:59:07.298Z,27.90
2022-09-23T18:01:57.258Z,27.87
2022-09-23T18:04:40.152Z,27.82
2022-09-23T18:07:31.569Z,27.89
2022-09-23T18:10:15.309Z,27.94
2022-09-23T18:13:03.859Z,28.09
2022-09-23T18:15:48.309Z,28.01
2022-09-23T18:18:37.865Z,27.89
2022-09-23T18:21:20.816Z,27.66
2022-09-23T18:24:31.180Z,27.59
2022-09-23T18:27:12.175Z,27.88
2022-09-23T18:30:00.940Z,27.80
2022-09-23T18:32:43.135Z,28.01
2022-09-23T18:35:31.865Z,28.06
2022-09-23T18:38:14.485Z,28.26
2022-09-23T18:41:04.928Z,28.30
2022-09-23T18:43:48.710Z,28.30
2022-09-23T18:46:38.855Z,28.32
2022-09-23T18:49:45.757Z,28.25
2022-09-23T18:52:41.967Z,28.20
2022-09-23T18:55:30.754Z,28.41
2022-09-23T18:58:20.856Z,28.19
2022-09-23T19:01:14.884Z,28.35
2022-09-23T19:04:10.168Z,28.16
2022-09-23T19:06:58.863Z,28.34
2022-09-23T19:09:41.389Z,28.28
2022-09-23T19:12:29.848Z,28.20
2022-09-23T19:15:13.292Z,28.28
2022-09-23T19:18:02.860Z,28.38
2022-09-23T19:20:45.709Z,28.29
2022-09-23T19:23:42.845Z,28.23
2022-09-23T19:26:30.500Z,28.21
2022-09-23T19:29:29.877Z,28.18
2022-09-23T19:32:12.322Z,28.21
2022-09-23T19:35:00.863Z,28.19
2022-09-23T19:37:43.361Z,28.25
2022-09-23T19:40:31.910Z,28.30
2022-09-23T19:43:21.857Z,28.29
2022-09-23T19:46:14.799Z,28.36
2022-09-23T19:48:57.202Z,28.17
2022-09-23T19:51:46.754Z,28.29
2022-09-23T19:54:29.302Z,28.34
2022-09-23T19:57:18.221Z,28.49
2022-09-23T20:00:00.573Z,28.33
2022-09-23T20:02:54.843Z,28.43
2022-09-23T20:05:37.298Z,28.54
2022-09-23T20:08:25.862Z,28.25
2022-09-23T20:11:13.518Z,28.46
2022-09-23T20:14:08.875Z,28.54
2022-09-23T20:16:51.310Z,28.41
2022-09-23T20:19:39.746Z,28.35
2022-09-23T20:22:39.887Z,28.35
2022-09-23T20:25:21.990Z,28.41
2022-09-23T20:28:10.863Z,28.24
2022-09-23T20:30:59.795Z,28.30
2022-09-23T20:33:55.827Z,28.18
2022-09-23T20:36:38.245Z,28.37
2022-09-23T20:39:26.735Z,28.19
2022-09-23T20:42:16.839Z,28.16
2022-09-23T20:44:59.125Z,28.21
2022-09-23T20:47:47.767Z,28.17
2022-09-23T20:50:30.118Z,28.26
2022-09-23T20:53:18.908Z,28.49
2022-09-23T20:56:03.142Z,28.40
2022-09-23T20:58:51.838Z,28.28
2022-09-23T21:01:40.809Z,28.29
2022-09-23T21:04:30.127Z,28.56
2022-09-23T21:07:11.780Z,28.30
2022-09-23T21:10:02.972Z,28.37
2022-09-23T21:12:44.834Z,28.26
2022-09-23T21:15:33.857Z,28.48
2022-09-23T21:18:21.739Z,28.37
2022-09-23T21:21:13.135Z,28.37
2022-09-23T21:24:23.676Z,28.34
2022-09-23T21:27:11.749Z,28.46
2022-09-23T21:30:00.832Z,28.26
2022-09-23T21:32:49.867Z,28.29
2022-09-23T21:35:38.929Z,28.34
2022-09-23T21:38:21.877Z,28.39
2022-09-23T21:41:13.155Z,28.41
2022-09-23T21:43:56.772Z,28.20
2022-09-23T21:46:45.917Z,28.26
2022-09-23T21:49:34.862Z,28.40
2022-09-23T21:52:23.872Z,28.31
2022-09-23T21:55:06.152Z,28.40
2022-09-23T21:57:54.758Z,28.39
2022-09-23T22:00:43.939Z,28.27
2022-09-23T22:03:26.760Z,28.18
2022-09-23T22:06:27.890Z,28.22
2022-09-23T22:09:24.858Z,28.29
2022-09-23T22:12:08.882Z,28.32
2022-09-23T22:14:59.773Z,28.44
2022-09-23T22:17:42.139Z,28.22
2022-09-23T22:20:30.854Z,28.35
2022-09-23T22:23:13.263Z,28.30
2022-09-23T22:26:05.772Z,28.37
2022-09-23T22:29:06.308Z,28.41
2022-09-23T22:32:12.892Z,28.25
2022-09-23T22:35:01.299Z,28.41
2022-09-23T22:37:44.776Z,28.49
2022-09-23T22:40:34.092Z,28.28
2022-09-23T22:43:16.197Z,28.46
2022-09-23T22:46:04.845Z,28.42
2022-09-23T22:48:47.396Z,28.47
2022-09-23T22:51:35.764Z,28.33
2022-09-23T22:54:19.413Z,28.34
2022-09-23T22:57:09.826Z,28.16
2022-09-23T22:59:52.487Z,28.31
2022-09-23T23:02:42.843Z,28.29
2022-09-23T23:05:31.852Z,28.39
2022-09-23T23:08:24.755Z,28.34
2022-09-23T23:11:12.463Z,28.10
2022-09-23T23:13:54.755Z,28.27
2022-09-23T23:16:43.746Z,28.12
2022-09-23T23:19:27.056Z,28.25
2022-09-23T23:22:15.730Z,28.31
2022-09-23T23:24:58.124Z,28.03
2022-09-23T23:27:46.744Z,28.00
2022-09-23T23:30:30.146Z,28.08
2022-09-23T23:33:18.848Z,28.10
2022-09-23T23:36:01.105Z,27.95
2022-09-23T23:38:51.839Z,28.04
2022-09-23T23:41:34.268Z,27.94
2022-09-23T23:44:22.762Z,28.21
2022-09-23T23:47:05.521Z,27.97
2022-09-23T23:49:54.771Z,28.21
2022-09-23T23:52:37.143Z,28.22
2022-09-23T23:55:25.890Z,28.12
2022-09-23T23:58:08.154Z,28.01
